Accueil
METAR-TAF:

METAR-TAF

Aéroports :

Aéroport de Castres-Mazamet

Castres, France

latitude: 43-33-25N, longitude: 2-17-21E, altitude: 239 m

Observation

Le bulletin a été fait il y a 30 minutes, à 18:30 UTC
Vent 23 kt de est/sud-est
Température 14°C
Humidité 77%
Pression 1016 hPa
Visibilité 10 km ou plus
Nuages fragmentés à une hauteur de 2700 ft
Nuages fragmentés à une hauteur de 19000 ft
Ciel couvert à une hauteur de 21000 ft

METAR: LFCK 261830Z AUTO 12023KT 9999 BKN027 BKN190 OVC210 14/10 Q1016 BECMG 13025G42KT

Heure: 20:00 (19:00 UTC)

Prévision

Le bulletin a été fait il y a 2 heures et 0 minutes, à 17:00 UTC
Prévision valable du 26 à 18 UTC au 27 à 03 UTC
Vent 25 kt de sud-est avec des rafales jusqu'à 42 kt
Visibilité 10 km ou plus
pas de nuages en-dessous de 1500 mètres et pas de cumulonimbus.

TAF: LFCK 261700Z 2618/2703 13025G42KT CAVOK

Observations et prévisions météorologiques de plus de 4000 aéroports (messages METAR et TAF).

Les stations disponibles sont représentées par des disques jaunes et rouges sur la carte.

Passer la souris dessus pour voir le nom de la station.

Cliquer dessus pour voir les observations et prévisions météorologiques.

Pour changer de carte: cliquez sur les boutons verts avec une croix noire pour zoomer, sur le bouton vert avec un tiret pour effectuer un zoom arrière, ou sur les flèches vertes pour les cartes adjacentes.


METAR-TAF: